This is the latest recevied weather packets stored in our database for station/object RUSSARO. If no packets are shown the sender has not sent any weather packets the latest 10 day(s).
| Time | Temp. | Humidity | Pressure | Rain* | Wind** | Luminosity | Snow |
|---|---|---|---|---|---|---|---|
| 1777802830 | 10.56° C | 74% | 1009.3 hPa | 0 mm | - | - | - |
| 1777801630 | 10.56° C | 73% | 1009.3 hPa | 0 mm | - | - | - |
| 1777800430 | 9.44° C | 75% | 1009.3 hPa | 0 mm | - | - | - |
| 1777799230 | 8.33° C | 79% | 1009.3 hPa | 0 mm | - | - | - |
| 1777798030 | 9.44° C | 76% | 1009.2 hPa | 0 mm | - | - | - |
| 1777796830 | 8.89° C | 78% | 1009 hPa | 0 mm | - | - | - |
| 1777795630 | 10° C | 77% | 1008.8 hPa | 0 mm | - | - | - |
| 1777794429 | 8.89° C | 80% | 1008.7 hPa | 0 mm | - | - | - |
| 1777793229 | 7.78° C | 85% | 1008.5 hPa | 0 mm | - | - | - |
| 1777792029 | 9.44° C | 80% | 1008.1 hPa | 0 mm | - | - | - |
| 1777790829 | 8.33° C | 82% | 1008.1 hPa | 0 mm | - | - | - |
| 1777789629 | 7.78° C | 86% | 1007.8 hPa | 0 mm | - | - | - |
| 1777788429 | 6.67° C | 89% | 1007.7 hPa | 0 mm | - | - | - |
| 1777787229 | 6.67° C | 87% | 1007.7 hPa | 0 mm | - | - | - |
| 1777786029 | 6.67° C | 88% | 1007.3 hPa | 0 mm | - | - | - |
| 1777784829 | 6.11° C | 89% | 1007.2 hPa | 0 mm | - | - | - |
| 1777783629 | 6.11° C | 89% | 1007.2 hPa | 0 mm | - | - | - |
| 1777782429 | 6.11° C | 89% | 1006.8 hPa | 0 mm | - | - | - |
| 1777781229 | 5.56° C | 91% | 1006.7 hPa | 0 mm | - | - | - |
| 1777780029 | 5.56° C | 91% | 1006.5 hPa | 0 mm | - | - | - |
| 1777778829 | 5.56° C | 92% | 1006.3 hPa | 0 mm | - | - | - |
| 1777777629 | 5.56° C | 91% | 1006.2 hPa | 0 mm | - | - | - |
| 1777776429 | 5.56° C | 91% | 1006.1 hPa | 0 mm | - | - | - |
| 1777775228 | 5.56° C | 91% | 1006 hPa | 0 mm | - | - | - |
| 1777774029 | 5.56° C | 90% | 1005.9 hPa | 0 mm | - | - | - |
* Rain latest hour (hover to see other rain measurements)
** Current wind speed in m/s (hover to see current wind gust speed)